sensor_id;sensor_type;location;lat;lon;timestamp;pressure;altitude;pressure_sealevel;temperature;humidity
28588;BME280;15787;49.662;10.162;2023-03-23T00:01:34;98451.16;;;13.17;72.68
28588;BME280;15787;49.662;10.162;2023-03-23T00:04:08;98454.00;;;13.26;72.34
28588;BME280;15787;49.662;10.162;2023-03-23T00:06:43;98455.09;;;13.28;72.33
28588;BME280;15787;49.662;10.162;2023-03-23T00:09:16;98455.41;;;13.21;73.03
28588;BME280;15787;49.662;10.162;2023-03-23T00:11:54;98450.00;;;12.96;72.70
28588;BME280;15787;49.662;10.162;2023-03-23T00:14:27;98445.25;;;13.15;72.78
28588;BME280;15787;49.662;10.162;2023-03-23T00:16:59;98444.78;;;12.77;73.27
28588;BME280;15787;49.662;10.162;2023-03-23T00:19:34;98444.13;;;12.63;74.44
28588;BME280;15787;49.662;10.162;2023-03-23T00:22:17;98443.91;;;12.58;74.56
28588;BME280;15787;49.662;10.162;2023-03-23T00:24:51;98437.00;;;12.19;77.09
28588;BME280;15787;49.662;10.162;2023-03-23T00:27:24;98429.44;;;12.29;77.07
28588;BME280;15787;49.662;10.162;2023-03-23T00:29:56;98433.72;;;12.42;76.15
28588;BME280;15787;49.662;10.162;2023-03-23T00:32:28;98429.13;;;12.57;75.26
28588;BME280;15787;49.662;10.162;2023-03-23T00:35:03;98425.59;;;12.66;74.28
28588;BME280;15787;49.662;10.162;2023-03-23T00:37:38;98430.09;;;12.63;74.15
28588;BME280;15787;49.662;10.162;2023-03-23T00:40:11;98423.91;;;12.68;74.19
28588;BME280;15787;49.662;10.162;2023-03-23T00:42:43;98428.75;;;12.77;73.40
28588;BME280;15787;49.662;10.162;2023-03-23T00:45:16;98436.44;;;12.95;72.95
28588;BME280;15787;49.662;10.162;2023-03-23T00:47:48;98431.81;;;13.01;72.65
28588;BME280;15787;49.662;10.162;2023-03-23T00:50:22;98432.91;;;13.03;71.95
28588;BME280;15787;49.662;10.162;2023-03-23T00:52:54;98427.16;;;13.07;71.72
28588;BME280;15787;49.662;10.162;2023-03-23T00:55:27;98421.00;;;13.30;71.75
28588;BME280;15787;49.662;10.162;2023-03-23T00:58:01;98433.31;;;13.32;71.24
28588;BME280;15787;49.662;10.162;2023-03-23T01:00:33;98423.75;;;13.12;70.85
28588;BME280;15787;49.662;10.162;2023-03-23T01:03:07;98425.06;;;13.29;70.65
28588;BME280;15787;49.662;10.162;2023-03-23T01:05:44;98425.22;;;13.35;70.89
28588;BME280;15787;49.662;10.162;2023-03-23T01:08:18;98419.13;;;13.27;70.19
28588;BME280;15787;49.662;10.162;2023-03-23T01:11:02;98416.59;;;13.20;70.12
28588;BME280;15787;49.662;10.162;2023-03-23T01:13:34;98420.03;;;13.15;70.46
28588;BME280;15787;49.662;10.162;2023-03-23T01:16:06;98420.38;;;13.35;70.68
28588;BME280;15787;49.662;10.162;2023-03-23T01:18:39;98413.38;;;13.30;70.22
28588;BME280;15787;49.662;10.162;2023-03-23T01:21:14;98409.50;;;13.37;70.19
28588;BME280;15787;49.662;10.162;2023-03-23T01:23:47;98408.69;;;13.27;70.49
28588;BME280;15787;49.662;10.162;2023-03-23T01:26:21;98400.13;;;13.31;69.71
28588;BME280;15787;49.662;10.162;2023-03-23T01:28:53;98398.25;;;13.28;70.20
28588;BME280;15787;49.662;10.162;2023-03-23T01:31:25;98395.28;;;13.22;70.37
28588;BME280;15787;49.662;10.162;2023-03-23T01:33:57;98395.94;;;13.36;69.68
28588;BME280;15787;49.662;10.162;2023-03-23T01:36:30;98385.97;;;13.35;69.76
28588;BME280;15787;49.662;10.162;2023-03-23T01:39:06;98378.03;;;13.42;69.79
28588;BME280;15787;49.662;10.162;2023-03-23T01:41:38;98383.94;;;13.44;69.63
28588;BME280;15787;49.662;10.162;2023-03-23T01:47:23;98376.16;;;13.48;69.73
28588;BME280;15787;49.662;10.162;2023-03-23T01:49:58;98365.41;;;13.56;69.19
28588;BME280;15787;49.662;10.162;2023-03-23T01:52:31;98354.34;;;13.52;68.97
28588;BME280;15787;49.662;10.162;2023-03-23T01:55:07;98347.31;;;13.75;68.47
28588;BME280;15787;49.662;10.162;2023-03-23T01:57:39;98355.28;;;13.58;68.43
28588;BME280;15787;49.662;10.162;2023-03-23T02:00:12;98348.44;;;13.59;68.27
28588;BME280;15787;49.662;10.162;2023-03-23T02:02:49;98358.06;;;13.58;68.26
28588;BME280;15787;49.662;10.162;2023-03-23T02:05:29;98345.47;;;13.54;68.60
28588;BME280;15787;49.662;10.162;2023-03-23T02:08:07;98343.75;;;13.56;68.90
28588;BME280;15787;49.662;10.162;2023-03-23T02:10:40;98337.06;;;13.45;68.36
28588;BME280;15787;49.662;10.162;2023-03-23T02:13:13;98333.75;;;13.55;68.76
28588;BME280;15787;49.662;10.162;2023-03-23T02:15:50;98343.59;;;13.51;69.19
28588;BME280;15787;49.662;10.162;2023-03-23T02:18:36;98349.22;;;13.42;69.05
28588;BME280;15787;49.662;10.162;2023-03-23T02:21:33;98337.50;;;13.43;69.51
28588;BME280;15787;49.662;10.162;2023-03-23T02:27:17;98343.28;;;13.40;69.42
28588;BME280;15787;49.662;10.162;2023-03-23T02:30:14;98342.19;;;13.19;69.56
28588;BME280;15787;49.662;10.162;2023-03-23T02:33:22;98341.84;;;13.17;71.04
28588;BME280;15787;49.662;10.162;2023-03-23T02:36:05;98334.66;;;13.07;70.90
28588;BME280;15787;49.662;10.162;2023-03-23T02:38:44;98334.34;;;12.96;70.90
28588;BME280;15787;49.662;10.162;2023-03-23T02:41:24;98329.50;;;12.96;71.20
28588;BME280;15787;49.662;10.162;2023-03-23T02:43:58;98325.44;;;12.97;71.24
28588;BME280;15787;49.662;10.162;2023-03-23T02:46:34;98330.44;;;12.93;71.42
28588;BME280;15787;49.662;10.162;2023-03-23T02:49:09;98326.69;;;12.87;71.61
28588;BME280;15787;49.662;10.162;2023-03-23T02:51:44;98318.28;;;12.87;71.51
28588;BME280;15787;49.662;10.162;2023-03-23T02:54:18;98310.47;;;12.82;72.02
28588;BME280;15787;49.662;10.162;2023-03-23T02:56:54;98313.94;;;12.86;71.63
28588;BME280;15787;49.662;10.162;2023-03-23T02:59:31;98318.28;;;12.87;71.70
28588;BME280;15787;49.662;10.162;2023-03-23T03:02:09;98300.69;;;12.87;71.43
28588;BME280;15787;49.662;10.162;2023-03-23T03:04:48;98305.34;;;12.90;71.62
28588;BME280;15787;49.662;10.162;2023-03-23T03:07:46;98302.41;;;12.93;71.37
28588;BME280;15787;49.662;10.162;2023-03-23T03:10:25;98300.72;;;12.96;70.87
28588;BME280;15787;49.662;10.162;2023-03-23T03:13:03;98293.09;;;12.96;71.14
28588;BME280;15787;49.662;10.162;2023-03-23T03:15:43;98307.06;;;12.87;71.21
28588;BME280;15787;49.662;10.162;2023-03-23T03:18:18;98306.75;;;12.85;72.38
28588;BME280;15787;49.662;10.162;2023-03-23T03:20:58;98305.97;;;12.76;72.37
28588;BME280;15787;49.662;10.162;2023-03-23T03:23:33;98306.09;;;12.72;72.62
28588;BME280;15787;49.662;10.162;2023-03-23T03:26:10;98315.28;;;12.73;72.79
28588;BME280;15787;49.662;10.162;2023-03-23T03:28:53;98309.38;;;12.71;73.27
28588;BME280;15787;49.662;10.162;2023-03-23T03:31:28;98306.75;;;12.85;72.67
28588;BME280;15787;49.662;10.162;2023-03-23T03:34:00;98301.94;;;12.86;72.86
28588;BME280;15787;49.662;10.162;2023-03-23T03:36:37;98306.31;;;12.96;72.25
28588;BME280;15787;49.662;10.162;2023-03-23T03:39:13;98305.06;;;12.88;72.51
28588;BME280;15787;49.662;10.162;2023-03-23T03:41:48;98302.91;;;13.10;71.64
28588;BME280;15787;49.662;10.162;2023-03-23T03:44:20;98297.91;;;13.05;71.93
28588;BME280;15787;49.662;10.162;2023-03-23T03:46:52;98285.78;;;13.17;71.97
28588;BME280;15787;49.662;10.162;2023-03-23T03:49:24;98295.72;;;13.00;72.31
28588;BME280;15787;49.662;10.162;2023-03-23T03:51:59;98294.50;;;13.10;71.99
28588;BME280;15787;49.662;10.162;2023-03-23T03:54:40;98295.72;;;13.00;72.49
28588;BME280;15787;49.662;10.162;2023-03-23T03:57:12;98285.44;;;12.88;72.96
28588;BME280;15787;49.662;10.162;2023-03-23T04:00:03;98289.16;;;12.85;73.32
28588;BME280;15787;49.662;10.162;2023-03-23T04:02:46;98291.66;;;12.83;73.77
28588;BME280;15787;49.662;10.162;2023-03-23T04:05:29;98290.88;;;12.73;74.00
28588;BME280;15787;49.662;10.162;2023-03-23T04:08:03;98288.25;;;12.79;73.81
28588;BME280;15787;49.662;10.162;2023-03-23T04:10:36;98284.03;;;12.92;73.08
28588;BME280;15787;49.662;10.162;2023-03-23T04:13:08;98290.56;;;12.89;73.03
28588;BME280;15787;49.662;10.162;2023-03-23T04:15:40;98286.53;;;12.90;72.91
28588;BME280;15787;49.662;10.162;2023-03-23T04:18:12;98288.84;;;12.92;73.01
28588;BME280;15787;49.662;10.162;2023-03-23T04:20:50;98300.88;;;13.01;72.64
28588;BME280;15787;49.662;10.162;2023-03-23T04:23:27;98302.28;;;13.06;72.56
28588;BME280;15787;49.662;10.162;2023-03-23T04:26:04;98285.47;;;13.06;72.08
28588;BME280;15787;49.662;10.162;2023-03-23T04:28:41;98290.28;;;13.05;72.15
28588;BME280;15787;49.662;10.162;2023-03-23T04:31:32;98289.84;;;13.16;71.45
28588;BME280;15787;49.662;10.162;2023-03-23T04:34:23;98294.69;;;13.15;71.89
28588;BME280;15787;49.662;10.162;2023-03-23T04:36:57;98297.63;;;13.12;71.49
28588;BME280;15787;49.662;10.162;2023-03-23T04:39:33;98292.81;;;13.21;71.69
28588;BME280;15787;49.662;10.162;2023-03-23T04:42:08;98289.09;;;13.24;71.03
28588;BME280;15787;49.662;10.162;2023-03-23T04:44:59;98298.25;;;13.25;70.86
28588;BME280;15787;49.662;10.162;2023-03-23T04:47:38;98298.25;;;13.25;70.28
28588;BME280;15787;49.662;10.162;2023-03-23T04:50:20;98299.53;;;13.24;70.62
28588;BME280;15787;49.662;10.162;2023-03-23T04:52:54;98289.06;;;13.34;70.60
28588;BME280;15787;49.662;10.162;2023-03-23T04:55:29;98288.75;;;13.22;70.83
28588;BME280;15787;49.662;10.162;2023-03-23T04:58:02;98290.16;;;13.18;71.11
28588;BME280;15787;49.662;10.162;2023-03-23T05:00:40;98286.72;;;13.23;71.26
28588;BME280;15787;49.662;10.162;2023-03-23T05:03:15;98291.72;;;13.19;71.24
28588;BME280;15787;49.662;10.162;2023-03-23T05:05:48;98293.91;;;13.24;71.10
28588;BME280;15787;49.662;10.162;2023-03-23T05:08:23;98290.00;;;13.21;71.59
28588;BME280;15787;49.662;10.162;2023-03-23T05:10:59;98289.09;;;13.24;71.16
28588;BME280;15787;49.662;10.162;2023-03-23T05:13:35;98289.56;;;13.32;71.26
28588;BME280;15787;49.662;10.162;2023-03-23T05:16:08;98301.22;;;13.21;71.04
28588;BME280;15787;49.662;10.162;2023-03-23T05:18:42;98289.38;;;13.17;71.31
28588;BME280;15787;49.662;10.162;2023-03-23T05:21:20;98296.84;;;13.20;71.44
28588;BME280;15787;49.662;10.162;2023-03-23T05:23:56;98302.94;;;13.28;71.44
28588;BME280;15787;49.662;10.162;2023-03-23T05:26:33;98306.66;;;13.16;71.66
28588;BME280;15787;49.662;10.162;2023-03-23T05:29:14;98300.41;;;13.12;71.85
28588;BME280;15787;49.662;10.162;2023-03-23T05:31:56;98307.09;;;13.05;71.93
28588;BME280;15787;49.662;10.162;2023-03-23T05:34:31;98308.50;;;13.01;71.89
28588;BME280;15787;49.662;10.162;2023-03-23T05:37:05;98302.88;;;13.01;72.04
28588;BME280;15787;49.662;10.162;2023-03-23T05:39:46;98309.28;;;13.01;72.78
28588;BME280;15787;49.662;10.162;2023-03-23T05:42:41;98312.06;;;12.92;73.15
28588;BME280;15787;49.662;10.162;2023-03-23T05:45:18;98307.53;;;12.95;73.22
28588;BME280;15787;49.662;10.162;2023-03-23T05:47:51;98310.34;;;12.95;73.64
28588;BME280;15787;49.662;10.162;2023-03-23T05:50:25;98316.41;;;12.84;74.06
28588;BME280;15787;49.662;10.162;2023-03-23T05:52:58;98312.97;;;12.89;73.98
28588;BME280;15787;49.662;10.162;2023-03-23T05:55:30;98313.44;;;12.88;73.96
28588;BME280;15787;49.662;10.162;2023-03-23T05:58:13;98327.16;;;12.86;74.85
28588;BME280;15787;49.662;10.162;2023-03-23T06:00:48;98323.59;;;13.03;75.63
28588;BME280;15787;49.662;10.162;2023-03-23T06:03:28;98331.50;;;12.87;75.49
28588;BME280;15787;49.662;10.162;2023-03-23T06:06:33;98324.34;;;12.86;76.54
28588;BME280;15787;49.662;10.162;2023-03-23T06:09:11;98326.97;;;12.80;76.95
28588;BME280;15787;49.662;10.162;2023-03-23T06:12:21;98326.34;;;12.76;77.44
28588;BME280;15787;49.662;10.162;2023-03-23T06:15:18;98322.47;;;12.74;77.99
28588;BME280;15787;49.662;10.162;2023-03-23T06:18:09;98332.59;;;12.89;78.70
28588;BME280;15787;49.662;10.162;2023-03-23T06:21:00;98344.81;;;12.64;78.87
28588;BME280;15787;49.662;10.162;2023-03-23T06:23:58;98348.81;;;13.03;78.05
28588;BME280;15787;49.662;10.162;2023-03-23T06:26:35;98344.03;;;13.13;78.03
28588;BME280;15787;49.662;10.162;2023-03-23T06:29:11;98347.75;;;13.10;78.20
28588;BME280;15787;49.662;10.162;2023-03-23T06:31:52;98339.06;;;13.35;77.07
28588;BME280;15787;49.662;10.162;2023-03-23T06:34:26;98344.97;;;13.28;77.75
28588;BME280;15787;49.662;10.162;2023-03-23T06:37:30;98353.53;;;13.06;78.72
28588;BME280;15787;49.662;10.162;2023-03-23T06:40:08;98362.59;;;13.38;77.17
28588;BME280;15787;49.662;10.162;2023-03-23T06:42:47;98364.47;;;13.32;78.86
28588;BME280;15787;49.662;10.162;2023-03-23T06:45:39;98359.47;;;13.36;79.28
28588;BME280;15787;49.662;10.162;2023-03-23T06:48:31;98353.00;;;12.90;82.58
28588;BME280;15787;49.662;10.162;2023-03-23T06:51:05;98354.19;;;13.28;83.41
28588;BME280;15787;49.662;10.162;2023-03-23T06:53:39;98367.41;;;13.19;82.44
28588;BME280;15787;49.662;10.162;2023-03-23T06:56:14;98361.00;;;13.09;83.46
28588;BME280;15787;49.662;10.162;2023-03-23T06:58:47;98358.69;;;13.35;79.63
28588;BME280;15787;49.662;10.162;2023-03-23T07:01:19;98349.34;;;13.29;80.65
28588;BME280;15787;49.662;10.162;2023-03-23T07:04:00;98350.00;;;13.42;79.13
28588;BME280;15787;49.662;10.162;2023-03-23T07:06:47;98363.38;;;13.65;78.74
28588;BME280;15787;49.662;10.162;2023-03-23T07:09:19;98358.22;;;13.82;77.28
28588;BME280;15787;49.662;10.162;2023-03-23T07:11:52;98366.78;;;13.78;78.21
28588;BME280;15787;49.662;10.162;2023-03-23T07:14:36;98376.78;;;13.61;78.04
28588;BME280;15787;49.662;10.162;2023-03-23T07:17:08;98383.47;;;13.82;77.26
28588;BME280;15787;49.662;10.162;2023-03-23T07:19:46;98392.81;;;13.79;77.51
28588;BME280;15787;49.662;10.162;2023-03-23T07:22:20;98394.22;;;13.92;76.85
28588;BME280;15787;49.662;10.162;2023-03-23T07:25:00;98388.94;;;13.85;75.74
28588;BME280;15787;49.662;10.162;2023-03-23T07:27:40;98384.25;;;13.82;75.18
28588;BME280;15787;49.662;10.162;2023-03-23T07:30:13;98396.88;;;13.87;75.95
28588;BME280;15787;49.662;10.162;2023-03-23T07:32:45;98400.00;;;13.80;75.71
28588;BME280;15787;49.662;10.162;2023-03-23T07:35:18;98392.69;;;13.82;75.58
28588;BME280;15787;49.662;10.162;2023-03-23T07:37:59;98407.50;;;13.65;76.02
28588;BME280;15787;49.662;10.162;2023-03-23T07:40:32;98415.91;;;13.83;75.70
28588;BME280;15787;49.662;10.162;2023-03-23T07:43:12;98408.72;;;13.73;75.54
28588;BME280;15787;49.662;10.162;2023-03-23T07:46:19;98415.13;;;13.73;74.74
28588;BME280;15787;49.662;10.162;2023-03-23T07:49:02;98424.94;;;13.69;75.10
28588;BME280;15787;49.662;10.162;2023-03-23T07:51:43;98429.63;;;13.72;75.27
28588;BME280;15787;49.662;10.162;2023-03-23T07:54:17;98407.00;;;13.93;75.82
28588;BME280;15787;49.662;10.162;2023-03-23T07:57:00;98400.91;;;13.86;76.48
28588;BME280;15787;49.662;10.162;2023-03-23T07:59:36;98404.97;;;14.12;76.22
28588;BME280;15787;49.662;10.162;2023-03-23T08:02:08;98416.19;;;14.12;75.66
28588;BME280;15787;49.662;10.162;2023-03-23T08:05:06;98417.88;;;14.19;75.33
28588;BME280;15787;49.662;10.162;2023-03-23T08:08:05;98416.31;;;14.27;74.15
28588;BME280;15787;49.662;10.162;2023-03-23T08:11:00;98428.03;;;14.16;74.70
28588;BME280;15787;49.662;10.162;2023-03-23T08:14:07;98432.72;;;14.10;74.93
28588;BME280;15787;49.662;10.162;2023-03-23T08:17:02;98433.16;;;14.54;73.88
28588;BME280;15787;49.662;10.162;2023-03-23T08:19:48;98428.47;;;14.51;73.86
28588;BME280;15787;49.662;10.162;2023-03-23T08:22:52;98424.03;;;14.68;73.16
28588;BME280;15787;49.662;10.162;2023-03-23T08:25:42;98439.47;;;14.73;74.75
28588;BME280;15787;49.662;10.162;2023-03-23T08:28:17;98441.84;;;14.65;74.21
28588;BME280;15787;49.662;10.162;2023-03-23T08:31:08;98434.91;;;14.84;73.33
28588;BME280;15787;49.662;10.162;2023-03-23T08:34:05;98434.84;;;14.93;71.92
28588;BME280;15787;49.662;10.162;2023-03-23T08:37:09;98439.03;;;14.65;72.00
28588;BME280;15787;49.662;10.162;2023-03-23T08:40:01;98444.94;;;14.76;72.31
28588;BME280;15787;49.662;10.162;2023-03-23T08:42:49;98443.38;;;14.75;71.66
28588;BME280;15787;49.662;10.162;2023-03-23T08:45:39;98454.59;;;14.84;71.97
28588;BME280;15787;49.662;10.162;2023-03-23T08:48:40;98452.94;;;15.01;72.03
28588;BME280;15787;49.662;10.162;2023-03-23T08:51:32;98468.38;;;15.06;70.53
28588;BME280;15787;49.662;10.162;2023-03-23T08:54:29;98462.97;;;15.26;71.72
28588;BME280;15787;49.662;10.162;2023-03-23T08:57:32;98460.22;;;15.41;70.65
28588;BME280;15787;49.662;10.162;2023-03-23T09:00:43;98462.88;;;15.44;70.13
28588;BME280;15787;49.662;10.162;2023-03-23T09:03:30;98467.16;;;15.31;70.60
28588;BME280;15787;49.662;10.162;2023-03-23T09:06:22;98478.47;;;15.22;71.10
28588;BME280;15787;49.662;10.162;2023-03-23T09:08:54;98471.59;;;15.23;70.40
28588;BME280;15787;49.662;10.162;2023-03-23T09:11:26;98465.19;;;15.22;70.90
28588;BME280;15787;49.662;10.162;2023-03-23T09:13:58;98461.16;;;15.14;71.07
28588;BME280;15787;49.662;10.162;2023-03-23T09:16:31;98467.88;;;15.16;71.34
28588;BME280;15787;49.662;10.162;2023-03-23T09:19:04;98467.72;;;15.20;71.61
28588;BME280;15787;49.662;10.162;2023-03-23T09:21:35;98464.09;;;14.87;71.91
28588;BME280;15787;49.662;10.162;2023-03-23T09:24:08;98485.75;;;15.04;72.35
28588;BME280;15787;49.662;10.162;2023-03-23T09:26:39;98484.59;;;15.20;72.19
28588;BME280;15787;49.662;10.162;2023-03-23T09:29:12;98493.03;;;15.20;72.43
28588;BME280;15787;49.662;10.162;2023-03-23T09:31:45;98505.44;;;14.95;72.82
28588;BME280;15787;49.662;10.162;2023-03-23T09:34:18;98500.81;;;14.83;72.91
28588;BME280;15787;49.662;10.162;2023-03-23T09:36:49;98498.56;;;14.96;73.24
28588;BME280;15787;49.662;10.162;2023-03-23T09:39:22;98503.75;;;14.80;73.55
28588;BME280;15787;49.662;10.162;2023-03-23T09:42:12;98511.69;;;14.99;74.09
28588;BME280;15787;49.662;10.162;2023-03-23T09:44:57;98506.25;;;14.87;74.51
28588;BME280;15787;49.662;10.162;2023-03-23T09:47:39;98515.03;;;14.71;74.77
28588;BME280;15787;49.662;10.162;2023-03-23T09:50:15;98531.47;;;14.54;74.90
28588;BME280;15787;49.662;10.162;2023-03-23T09:52:51;98536.91;;;14.67;75.62
28588;BME280;15787;49.662;10.162;2023-03-23T09:55:24;98526.13;;;14.65;76.46
28588;BME280;15787;49.662;10.162;2023-03-23T09:58:02;98532.06;;;14.58;77.55
28588;BME280;15787;49.662;10.162;2023-03-23T10:00:44;98522.84;;;14.76;77.29
28588;BME280;15787;49.662;10.162;2023-03-23T10:03:21;98536.72;;;14.79;76.61
28588;BME280;15787;49.662;10.162;2023-03-23T10:05:57;98525.16;;;14.86;76.57
28588;BME280;15787;49.662;10.162;2023-03-23T10:08:34;98537.34;;;14.83;76.58
28588;BME280;15787;49.662;10.162;2023-03-23T10:11:16;98536.69;;;14.97;76.82
28588;BME280;15787;49.662;10.162;2023-03-23T10:14:07;98534.22;;;14.81;76.71
28588;BME280;15787;49.662;10.162;2023-03-23T10:16:51;98532.50;;;14.75;76.90
28588;BME280;15787;49.662;10.162;2023-03-23T10:19:32;98526.59;;;14.73;77.34
28588;BME280;15787;49.662;10.162;2023-03-23T10:22:09;98536.41;;;14.77;77.31
28588;BME280;15787;49.662;10.162;2023-03-23T10:24:51;98532.81;;;14.86;77.80
28588;BME280;15787;49.662;10.162;2023-03-23T10:27:27;98547.34;;;14.84;78.17
28588;BME280;15787;49.662;10.162;2023-03-23T10:30:13;98543.88;;;14.89;78.31
28588;BME280;15787;49.662;10.162;2023-03-23T10:32:50;98564.06;;;14.70;77.71
28588;BME280;15787;49.662;10.162;2023-03-23T10:35:28;98559.88;;;14.56;78.92
28588;BME280;15787;49.662;10.162;2023-03-23T10:38:06;98555.50;;;14.55;79.03
28588;BME280;15787;49.662;10.162;2023-03-23T10:40:47;98550.81;;;14.52;79.21
28588;BME280;15787;49.662;10.162;2023-03-23T10:43:26;98566.44;;;14.53;78.66
28588;BME280;15787;49.662;10.162;2023-03-23T10:46:01;98554.13;;;14.41;78.74
28588;BME280;15787;49.662;10.162;2023-03-23T10:48:37;98562.19;;;14.39;78.92
28588;BME280;15787;49.662;10.162;2023-03-23T10:51:16;98556.91;;;14.32;79.09
28588;BME280;15787;49.662;10.162;2023-03-23T10:53:55;98560.44;;;14.24;78.49
28588;BME280;15787;49.662;10.162;2023-03-23T10:56:34;98558.94;;;14.41;78.61
28588;BME280;15787;49.662;10.162;2023-03-23T10:59:13;98547.69;;;14.50;78.43
28588;BME280;15787;49.662;10.162;2023-03-23T11:01:48;98549.41;;;14.57;77.10
28588;BME280;15787;49.662;10.162;2023-03-23T11:04:20;98546.28;;;14.64;77.64
28588;BME280;15787;49.662;10.162;2023-03-23T11:07:00;98549.81;;;14.82;76.51
28588;BME280;15787;49.662;10.162;2023-03-23T11:09:35;98550.72;;;15.06;76.80
28588;BME280;15787;49.662;10.162;2023-03-23T11:12:16;98543.00;;;15.16;75.98
28588;BME280;15787;49.662;10.162;2023-03-23T11:14:49;98547.78;;;15.34;75.45
28588;BME280;15787;49.662;10.162;2023-03-23T11:17:25;98542.56;;;15.08;74.88
28588;BME280;15787;49.662;10.162;2023-03-23T11:19:57;98540.38;;;15.54;75.34
28588;BME280;15787;49.662;10.162;2023-03-23T11:22:32;98550.53;;;15.61;75.00
28588;BME280;15787;49.662;10.162;2023-03-23T11:25:06;98542.19;;;15.66;75.69
28588;BME280;15787;49.662;10.162;2023-03-23T11:27:38;98538.06;;;15.53;75.29
28588;BME280;15787;49.662;10.162;2023-03-23T11:30:20;98539.63;;;15.45;76.16
28588;BME280;15787;49.662;10.162;2023-03-23T11:32:55;98537.22;;;15.19;75.67
28588;BME280;15787;49.662;10.162;2023-03-23T11:35:30;98541.72;;;15.68;75.73
28588;BME280;15787;49.662;10.162;2023-03-23T11:38:04;98537.81;;;15.65;74.87
28588;BME280;15787;49.662;10.162;2023-03-23T11:40:47;98529.41;;;15.56;75.15
28588;BME280;15787;49.662;10.162;2023-03-23T11:43:25;98514.72;;;15.85;75.90
28588;BME280;15787;49.662;10.162;2023-03-23T11:46:05;98524.13;;;15.58;75.38
28588;BME280;15787;49.662;10.162;2023-03-23T11:48:47;98528.91;;;16.14;75.41
28588;BME280;15787;49.662;10.162;2023-03-23T11:51:28;98516.78;;;16.23;75.29
28588;BME280;15787;49.662;10.162;2023-03-23T11:54:09;98518.09;;;16.13;75.61
28588;BME280;15787;49.662;10.162;2023-03-23T11:56:45;98524.09;;;16.06;75.12
28588;BME280;15787;49.662;10.162;2023-03-23T11:59:27;98528.63;;;15.89;75.32
28588;BME280;15787;49.662;10.162;2023-03-23T12:02:13;98531.91;;;16.11;74.62
28588;BME280;15787;49.662;10.162;2023-03-23T12:05:09;98535.13;;;15.95;75.85
28588;BME280;15787;49.662;10.162;2023-03-23T12:07:53;98532.25;;;16.04;75.40
28588;BME280;15787;49.662;10.162;2023-03-23T12:10:34;98543.22;;;15.78;74.17
28588;BME280;15787;49.662;10.162;2023-03-23T12:13:29;98543.56;;;15.95;74.75
28588;BME280;15787;49.662;10.162;2023-03-23T12:16:11;98543.88;;;15.73;75.13
28588;BME280;15787;49.662;10.162;2023-03-23T12:18:52;98535.72;;;15.75;74.61
28588;BME280;15787;49.662;10.162;2023-03-23T12:21:32;98552.06;;;15.62;74.95
28588;BME280;15787;49.662;10.162;2023-03-23T12:24:15;98550.56;;;15.52;75.78
28588;BME280;15787;49.662;10.162;2023-03-23T12:26:57;98539.44;;;15.57;76.23
28588;BME280;15787;49.662;10.162;2023-03-23T12:29:48;98530.16;;;15.66;76.12
28588;BME280;15787;49.662;10.162;2023-03-23T12:32:33;98534.88;;;15.60;75.64
28588;BME280;15787;49.662;10.162;2023-03-23T12:35:17;98525.91;;;15.70;75.88
28588;BME280;15787;49.662;10.162;2023-03-23T12:38:03;98525.19;;;15.61;76.63
28588;BME280;15787;49.662;10.162;2023-03-23T12:40:48;98538.25;;;15.73;76.16
28588;BME280;15787;49.662;10.162;2023-03-23T12:43:28;98523.78;;;15.56;75.59
28588;BME280;15787;49.662;10.162;2023-03-23T12:46:21;98525.66;;;15.59;76.18
28588;BME280;15787;49.662;10.162;2023-03-23T12:49:00;98528.81;;;15.52;76.58
28588;BME280;15787;49.662;10.162;2023-03-23T12:51:42;98522.47;;;15.34;77.21
28588;BME280;15787;49.662;10.162;2023-03-23T12:54:20;98527.38;;;15.57;77.70
28588;BME280;15787;49.662;10.162;2023-03-23T12:56:58;98531.41;;;15.32;78.01
28588;BME280;15787;49.662;10.162;2023-03-23T12:59:38;98528.81;;;15.10;79.44
28588;BME280;15787;49.662;10.162;2023-03-23T13:02:18;98516.59;;;15.23;79.94
28588;BME280;15787;49.662;10.162;2023-03-23T13:04:54;98518.72;;;15.37;79.42
28588;BME280;15787;49.662;10.162;2023-03-23T13:07:33;98509.03;;;15.70;79.08
28588;BME280;15787;49.662;10.162;2023-03-23T13:10:15;98513.22;;;15.75;78.80
28588;BME280;15787;49.662;10.162;2023-03-23T13:12:52;98516.75;;;15.61;79.53
28588;BME280;15787;49.662;10.162;2023-03-23T13:15:33;98509.03;;;15.70;79.30
28588;BME280;15787;49.662;10.162;2023-03-23T13:18:12;98504.88;;;15.57;79.53
28588;BME280;15787;49.662;10.162;2023-03-23T13:21:00;98511.66;;;15.74;78.92
28588;BME280;15787;49.662;10.162;2023-03-23T13:23:35;98503.56;;;15.67;79.14
28588;BME280;15787;49.662;10.162;2023-03-23T13:26:11;98487.59;;;15.73;79.73
28588;BME280;15787;49.662;10.162;2023-03-23T13:29:05;98488.94;;;15.21;79.84
28588;BME280;15787;49.662;10.162;2023-03-23T13:31:41;98481.16;;;15.49;80.28
28588;BME280;15787;49.662;10.162;2023-03-23T13:34:18;98482.31;;;15.66;79.10
28588;BME280;15787;49.662;10.162;2023-03-23T13:36:53;98481.53;;;15.65;79.58
28588;BME280;15787;49.662;10.162;2023-03-23T13:39:28;98476.34;;;15.73;79.57
28588;BME280;15787;49.662;10.162;2023-03-23T13:42:04;98471.59;;;15.55;78.29
28588;BME280;15787;49.662;10.162;2023-03-23T13:44:42;98475.28;;;15.38;78.11
28588;BME280;15787;49.662;10.162;2023-03-23T13:47:27;98461.88;;;15.56;77.81
28588;BME280;15787;49.662;10.162;2023-03-23T13:50:05;98459.72;;;15.75;76.35
28588;BME280;15787;49.662;10.162;2023-03-23T13:52:50;98456.44;;;15.76;76.37
28588;BME280;15787;49.662;10.162;2023-03-23T13:55:38;98451.41;;;15.57;75.77
28588;BME280;15787;49.662;10.162;2023-03-23T13:58:21;98454.03;;;15.84;74.77
28588;BME280;15787;49.662;10.162;2023-03-23T14:01:12;98459.81;;;15.66;75.08